Thor — THOR — position and weather

sailwx.info

Track history (hours):
 
Tides and Currents Weather Stations Pressure Air Temp Water Temp Dewpoint Dewpoint Depression Visibility Wind Speed Wind Dir Waves Ship Positions

Thor

Last reported at 2018-Jul-20 06:22 UTC. Time now 2018-Jul-21 05:58 UTC.
Position S 27°53' E 153°24'.

Length 17 m.

Type: Sailing vessel. MMSI: 503032880.

Date/timePositionNaut miles runAvg speedWind from/ knotsBaromVisibWave heightAir tempDewpointWater temp
2018-Jul-20 06:22S 27°53' E 153°24'0 0.9
2018-Jul-20 06:00S 27°52' E 153°24'3 5.2
2018-Jul-20 05:30S 27°51' E 153°21'2 0.0
2018-Jul-18 13:30S 27°52' E 153°20'0 0.0
2018-Jul-18 13:00S 27°52' E 153°20'0 0.0
2018-Jul-18 12:30S 27°52' E 153°20'0 0.0
2018-Jul-18 11:57S 27°52' E 153°20'0 0.0
2018-Jul-18 11:30S 27°52' E 153°20'0 0.0
2018-Jul-18 10:30S 27°52' E 153°20'0 0.1
2018-Jul-18 10:00S 27°52' E 153°20'0 0.1
2018-Jul-18 09:30S 27°52' E 153°20'0 0.0
2018-Jul-18 09:00S 27°52' E 153°20'0 0.0
2018-Jul-18 08:30S 27°52' E 153°20'0 0.0
2018-Jul-18 08:00S 27°52' E 153°20'0 0.0
2018-Jul-18 07:30S 27°52' E 153°20'0 0.0
2018-Jul-18 07:00S 27°52' E 153°20'0 0.0
2018-Jul-18 06:27S 27°52' E 153°20'0 0.0
2018-Jul-18 06:00S 27°52' E 153°20'0 0.0
2018-Jul-18 05:30S 27°52' E 153°20'0 0.0
2018-Jul-18 05:00S 27°52' E 153°20'0 0.0
2018-Jul-18 04:30S 27°52' E 153°20'0 0.0
2018-Jul-18 03:57S 27°52' E 153°20'0 0.1
2018-Jul-18 03:27S 27°52' E 153°20'0 0.1
2018-Jul-18 02:57S 27°52' E 153°20'0 0.0
2018-Jul-18 02:30S 27°52' E 153°20'0 0.0
2018-Jul-18 02:00S 27°52' E 153°20'0 0.0
2018-Jul-18 01:30S 27°52' E 153°20'0 0.0
2018-Jul-18 01:00S 27°52' E 153°20'0 0.0
2018-Jul-18 00:27S 27°52' E 153°20'0 0.0
2018-Jul-17 03:49S 27°52' E 153°20'0 0.0
2018-Jul-17 03:28S 27°52' E 153°20'2 4.1
2018-Jul-17 03:00S 27°51' E 153°22'1 2.8
2018-Jul-17 02:30S 27°50' E 153°23'2 3.1
2018-Jul-17 02:00S 27°49' E 153°24'3 5.3
2018-Jul-17 01:30S 27°47' E 153°26'  
2018-Jul-11 06:05S 27°46' E 153°26'0 0.0
2018-Jul-11 05:59S 27°46' E 153°26'0 0.3
2018-Jul-11 05:29S 27°46' E 153°26'0 0.0
2018-Jul-11 04:56S 27°46' E 153°26'0 0.0
2018-Jul-11 04:29S 27°46' E 153°26'0 0.0
2018-Jul-11 03:59S 27°46' E 153°26'0 0.0
2018-Jul-11 03:29S 27°46' E 153°26'1 1.6
2018-Jul-11 03:00S 27°46' E 153°26'3 6.0
2018-Jul-11 02:30S 27°49' E 153°25'3 5.3
2018-Jul-11 02:00S 27°52' E 153°25'  
Track history (hours):
 
Tides and Currents Weather Stations Pressure Air Temp Water Temp Dewpoint Dewpoint Depression Visibility Wind Speed Wind Dir Waves Ship Positions

Thor

Last reported at 2018-Jul-20 06:22 UTC. Time now 2018-Jul-21 05:58 UTC.
Position S 27°53' E 153°24'.

Length 17 m.

Type: Sailing vessel. MMSI: 503032880.

Date/timePositionNaut miles runAvg speedWind from/ knotsBaromVisibWave heightAir tempDewpointWater temp
2018-Jul-20 06:22S 27°53' E 153°24'0 0.9
2018-Jul-20 06:00S 27°52' E 153°24'3 5.2
2018-Jul-20 05:30S 27°51' E 153°21'2 0.0
2018-Jul-18 13:30S 27°52' E 153°20'0 0.0
2018-Jul-18 13:00S 27°52' E 153°20'0 0.0
2018-Jul-18 12:30S 27°52' E 153°20'0 0.0
2018-Jul-18 11:57S 27°52' E 153°20'0 0.0
2018-Jul-18 11:30S 27°52' E 153°20'0 0.0
2018-Jul-18 10:30S 27°52' E 153°20'0 0.1
2018-Jul-18 10:00S 27°52' E 153°20'0 0.1
2018-Jul-18 09:30S 27°52' E 153°20'0 0.0
2018-Jul-18 09:00S 27°52' E 153°20'0 0.0
2018-Jul-18 08:30S 27°52' E 153°20'0 0.0
2018-Jul-18 08:00S 27°52' E 153°20'0 0.0
2018-Jul-18 07:30S 27°52' E 153°20'0 0.0
2018-Jul-18 07:00S 27°52' E 153°20'0 0.0
2018-Jul-18 06:27S 27°52' E 153°20'0 0.0
2018-Jul-18 06:00S 27°52' E 153°20'0 0.0
2018-Jul-18 05:30S 27°52' E 153°20'0 0.0
2018-Jul-18 05:00S 27°52' E 153°20'0 0.0
2018-Jul-18 04:30S 27°52' E 153°20'0 0.0
2018-Jul-18 03:57S 27°52' E 153°20'0 0.1
2018-Jul-18 03:27S 27°52' E 153°20'0 0.1
2018-Jul-18 02:57S 27°52' E 153°20'0 0.0
2018-Jul-18 02:30S 27°52' E 153°20'0 0.0
2018-Jul-18 02:00S 27°52' E 153°20'0 0.0
2018-Jul-18 01:30S 27°52' E 153°20'0 0.0
2018-Jul-18 01:00S 27°52' E 153°20'0 0.0
2018-Jul-18 00:27S 27°52' E 153°20'0 0.0
2018-Jul-17 03:49S 27°52' E 153°20'0 0.0
2018-Jul-17 03:28S 27°52' E 153°20'2 4.1
2018-Jul-17 03:00S 27°51' E 153°22'1 2.8
2018-Jul-17 02:30S 27°50' E 153°23'2 3.1
2018-Jul-17 02:00S 27°49' E 153°24'3 5.3
2018-Jul-17 01:30S 27°47' E 153°26'  
2018-Jul-11 06:05S 27°46' E 153°26'0 0.0
2018-Jul-11 05:59S 27°46' E 153°26'0 0.3
2018-Jul-11 05:29S 27°46' E 153°26'0 0.0
2018-Jul-11 04:56S 27°46' E 153°26'0 0.0
2018-Jul-11 04:29S 27°46' E 153°26'0 0.0
2018-Jul-11 03:59S 27°46' E 153°26'0 0.0
2018-Jul-11 03:29S 27°46' E 153°26'1 1.6
2018-Jul-11 03:00S 27°46' E 153°26'3 6.0
2018-Jul-11 02:30S 27°49' E 153°25'3 5.3
2018-Jul-11 02:00S 27°52' E 153°25'  

Dump ship's entire track history